Time;durP1;ratioP1;P1;durP2;ratioP2;P2;SDS_P1;SDS_P2;PMS_P1;PMS_P2;Temp;Humidity;BMP_temperature;BMP_pressure;BME280_temperature;BME280_humidity;BME280_pressure;Samples;Min_cycle;Max_cycle;Signal;HPM_P1;HPM_P2
2021/04/22 00:00:16;;;;;;;31.17;6.57;;;;;;;4.12;100.00;102463.88;6165404;23;20001;-87
2021/04/22 00:02:42;;;;;;;29.33;6.03;;;;;;;4.21;100.00;102484.00;6165866;23;20012;-88
2021/04/22 00:05:13;;;;;;;22.35;5.10;;;;;;;4.09;100.00;102484.78;6161648;23;20017;-87
2021/04/22 00:07:38;;;;;;;28.27;5.18;;;;;;;4.12;100.00;102500.53;6161428;23;20054;-88
2021/04/22 00:10:13;;;;;;;19.15;4.88;;;;;;;4.04;100.00;102499.56;6162328;23;20014;-87
2021/04/22 00:12:39;;;;;;;26.48;5.10;;;;;;;4.04;100.00;102501.31;6163520;23;20395;-87
2021/04/22 00:15:12;;;;;;;29.08;5.57;;;;;;;4.01;100.00;102491.69;6164179;23;20001;-87
2021/04/22 00:17:38;;;;;;;21.60;5.13;;;;;;;3.92;100.00;102475.94;6162791;23;20017;-88
2021/04/22 00:20:04;;;;;;;25.02;5.45;;;;;;;4.10;100.00;102510.06;6162022;23;20032;-88
2021/04/22 00:22:29;;;;;;;25.30;5.03;;;;;;;4.03;100.00;102510.03;6161460;23;20009;-88
2021/04/22 00:24:55;;;;;;;25.75;4.90;;;;;;;4.15;100.00;102513.63;6162226;23;20092;-88
2021/04/22 00:27:20;;;;;;;26.75;4.45;;;;;;;3.95;100.00;102498.59;6164367;23;20001;-88
2021/04/22 00:29:45;;;;;;;32.63;5.50;;;;;;;3.89;100.00;102492.44;6162814;23;20002;-87
2021/04/22 00:32:10;;;;;;;31.23;5.38;;;;;;;4.02;100.00;102521.38;6162304;23;20040;-88
2021/04/22 00:34:36;;;;;;;23.92;4.38;;;;;;;3.84;100.00;102511.59;6161881;23;20107;-87
2021/04/22 00:37:01;;;;;;;28.10;4.45;;;;;;;3.77;100.00;102501.94;6160669;23;20013;-88
2021/04/22 00:39:26;;;;;;;28.90;5.57;;;;;;;3.89;100.00;102522.97;6160317;23;20005;-87
2021/04/22 00:41:52;;;;;;;20.38;5.53;;;;;;;3.89;100.00;102518.59;6161878;23;20439;-87
2021/04/22 00:44:17;;;;;;;22.70;5.88;;;;;;;3.78;100.00;102514.16;6163595;23;20037;-86
2021/04/22 00:46:44;;;;;;;25.08;5.28;;;;;;;3.80;100.00;102523.75;6162482;23;20001;-88
2021/04/22 00:49:11;;;;;;;23.50;5.13;;;;;;;3.58;100.00;102501.72;6161523;23;20009;-87
2021/04/22 00:51:36;;;;;;;28.52;5.50;;;;;;;3.72;100.00;102511.47;6160127;23;20033;-86
2021/04/22 00:54:02;;;;;;;23.30;4.80;;;;;;;3.74;100.00;102517.59;6159855;23;20006;-86
2021/04/22 00:56:27;;;;;;;22.23;5.38;;;;;;;3.65;100.00;102520.97;6161795;23;20009;-86
2021/04/22 00:58:53;;;;;;;28.15;6.00;;;;;;;3.64;100.00;102524.44;6161701;23;20017;-86
2021/04/22 01:01:18;;;;;;;24.88;5.10;;;;;;;3.65;100.00;102520.97;6162726;23;20053;-86
2021/04/22 01:03:45;;;;;;;23.38;6.35;;;;;;;3.69;100.00;102525.38;6160471;23;20100;-86
2021/04/22 01:06:11;;;;;;;25.58;5.60;;;;;;;3.67;100.00;102521.88;6163670;23;20097;-86
2021/04/22 01:08:37;;;;;;;26.02;6.47;;;;;;;3.52;100.00;102519.97;6162045;23;20005;-85
2021/04/22 01:11:05;;;;;;;22.73;4.40;;;;;;;3.49;100.00;102519.06;6161076;23;20004;-86
2021/04/22 01:13:30;;;;;;;30.45;6.13;;;;;;;3.50;100.00;102518.19;6161385;23;20005;-86
2021/04/22 01:15:55;;;;;;;28.45;5.18;;;;;;;3.48;100.00;102519.91;6162530;23;20001;-85
2021/04/22 01:18:21;;;;;;;23.90;6.00;;;;;;;3.54;100.00;102538.28;6161391;23;20668;-85
2021/04/22 01:20:50;;;;;;;29.48;5.22;;;;;;;3.44;100.00;102541.66;6159723;23;20432;-84
2021/04/22 01:23:16;;;;;;;34.33;5.53;;;;;;;3.43;100.00;102539.91;6160978;23;20005;-84
2021/04/22 01:25:44;;;;;;;28.20;5.25;;;;;;;3.32;100.00;102538.03;6161707;23;20001;-86
2021/04/22 01:28:12;;;;;;;37.78;7.45;;;;;;;3.28;100.00;102538.84;6165202;23;20001;-85
2021/04/22 01:30:44;;;;;;;31.45;7.15;;;;;;;3.33;100.00;102545.00;6165049;23;20005;-86
2021/04/22 01:33:10;;;;;;;27.10;5.78;;;;;;;3.24;100.00;102523.09;6166711;23;20416;-85
2021/04/22 01:35:38;;;;;;;24.45;5.22;;;;;;;3.27;100.00;102541.44;6163647;23;20328;-85
2021/04/22 01:38:05;;;;;;;30.17;6.43;;;;;;;3.29;100.00;102542.34;6162483;23;20014;-86
2021/04/22 01:40:31;;;;;;;23.55;4.80;;;;;;;3.20;100.00;102547.44;6162475;23;20029;-87
2021/04/22 01:42:57;;;;;;;32.58;6.20;;;;;;;3.09;100.00;102537.72;6162721;23;20370;-86
2021/04/22 01:45:23;;;;;;;26.38;5.10;;;;;;;3.07;100.00;102547.28;6160177;23;20021;-86
2021/04/22 01:47:49;;;;;;;25.70;6.40;;;;;;;3.17;100.00;102556.13;6159468;23;20515;-85
2021/04/22 01:50:18;;;;;;;20.00;5.55;;;;;;;2.93;100.00;102535.75;6160615;23;20005;-87
2021/04/22 01:52:44;;;;;;;26.67;5.43;;;;;;;2.80;100.00;102539.03;6159464;23;20010;-87
2021/04/22 01:55:12;;;;;;;30.00;6.72;;;;;;;3.02;100.00;102555.91;6134811;23;20002;-87
2021/04/22 01:57:38;;;;;;;25.25;4.82;;;;;;;3.03;100.00;102548.09;6159875;23;20009;-87
2021/04/22 02:00:29;;;;;;;17.88;5.57;;;;;;;3.03;100.00;102539.38;6159868;23;20340;-88
2021/04/22 02:02:55;;;;;;;24.27;6.22;;;;;;;2.91;100.00;102531.34;6146281;23;20009;-86
2021/04/22 02:05:20;;;;;;;24.27;5.28;;;;;;;2.98;100.00;102554.13;6160323;23;20012;-88
2021/04/22 02:07:47;;;;;;;21.48;5.20;;;;;;;3.09;100.00;102562.97;6161141;23;20017;-87
2021/04/22 02:10:13;;;;;;;31.50;5.95;;;;;;;3.10;100.00;102554.28;6161678;23;20454;-88
2021/04/22 02:12:39;;;;;;;17.00;5.22;;;;;;;2.95;100.00;102547.09;6136591;23;20005;-87
2021/04/22 02:15:11;;;;;;;23.27;6.30;;;;;;;3.08;100.00;102558.59;6162143;23;20073;-87
2021/04/22 02:17:37;;;;;;;26.38;5.80;;;;;;;3.02;100.00;102566.38;6163325;23;20011;-87
2021/04/22 02:20:22;;;;;;;22.65;6.13;;;;;;;3.14;100.00;102566.53;6162356;23;20005;-89
2021/04/22 02:22:49;;;;;;;28.67;6.55;;;;;;;3.04;100.00;102567.25;6163569;23;20010;-87
2021/04/22 02:25:17;;;;;;;40.55;7.30;;;;;;;2.95;100.00;102549.72;6164019;23;19997;-87
2021/04/22 02:27:43;;;;;;;32.35;6.20;;;;;;;3.00;100.00;102568.06;6161520;23;20012;-89
2021/04/22 02:30:13;;;;;;;20.98;5.63;;;;;;;3.03;100.00;102571.59;6163141;23;20005;-86
2021/04/22 02:32:39;;;;;;;25.50;5.57;;;;;;;3.07;100.00;102560.34;6162268;23;20088;-87
2021/04/22 02:35:07;;;;;;;23.02;5.53;;;;;;;3.08;100.00;102561.22;6162752;23;20032;-88
2021/04/22 02:37:34;;;;;;;27.88;5.63;;;;;;;3.09;100.00;102566.47;6162326;23;20024;-87
2021/04/22 02:40:00;;;;;;;28.70;5.28;;;;;;;3.21;100.00;102564.84;6162621;23;20009;-88
2021/04/22 02:42:25;;;;;;;24.50;5.68;;;;;;;3.10;100.00;102572.56;6163104;23;20376;-87
2021/04/22 02:44:50;;;;;;;25.23;6.65;;;;;;;3.07;100.00;102564.69;6164858;23;20008;-87
2021/04/22 02:47:16;;;;;;;24.85;6.40;;;;;;;3.20;100.00;102568.34;6164876;23;20625;-88
2021/04/22 02:49:41;;;;;;;25.88;5.63;;;;;;;3.10;100.00;102551.66;6164158;23;20013;-88
2021/04/22 02:52:08;;;;;;;24.15;6.45;;;;;;;3.25;100.00;102572.75;6164259;23;20043;-88
2021/04/22 02:54:33;;;;;;;31.60;6.72;;;;;;;3.16;100.00;102563.91;6164410;23;20005;-87
2021/04/22 02:56:58;;;;;;;22.20;5.80;;;;;;;3.20;100.00;102565.72;6160772;23;20399;-86
2021/04/22 02:59:24;;;;;;;30.52;6.10;;;;;;;3.34;100.00;102565.06;6161039;23;20013;-86
2021/04/22 03:01:49;;;;;;;26.73;6.25;;;;;;;3.06;100.00;102547.25;6165082;23;20009;-87
2021/04/22 03:04:14;;;;;;;33.38;6.25;;;;;;;3.01;100.00;102564.59;6164226;23;20013;-86
2021/04/22 03:06:40;;;;;;;22.35;8.15;;;;;;;2.96;100.00;102545.34;6165345;23;20012;-87
2021/04/22 03:09:06;;;;;;;25.75;6.20;;;;;;;3.06;100.00;102573.38;6165049;23;20005;-87
2021/04/22 03:11:31;;;;;;;25.40;6.57;;;;;;;3.03;100.00;102570.72;6164970;23;20001;-87
2021/04/22 03:13:56;;;;;;;27.17;5.47;;;;;;;3.07;100.00;102568.19;6165809;23;20424;-86
2021/04/22 03:16:22;;;;;;;23.38;7.10;;;;;;;3.10;100.00;102573.44;6164226;23;20056;-86
2021/04/22 03:18:48;;;;;;;25.35;6.38;;;;;;;3.10;100.00;102576.03;6162761;23;20010;-87
2021/04/22 03:21:13;;;;;;;25.08;6.45;;;;;;;3.09;100.00;102576.91;6164140;23;20001;-87
2021/04/22 03:23:39;;;;;;;25.88;7.68;;;;;;;3.21;100.00;102576.19;6162683;23;20005;-87
2021/04/22 03:26:04;;;;;;;23.58;7.95;;;;;;;3.20;100.00;102576.19;6163456;23;20024;-86
2021/04/22 03:28:29;;;;;;;26.92;7.22;;;;;;;3.00;100.00;102565.44;6162380;23;20010;-88
2021/04/22 03:30:55;;;;;;;36.05;6.95;;;;;;;3.10;100.00;102564.72;6163484;23;20005;-87
2021/04/22 03:33:20;;;;;;;19.90;6.07;;;;;;;3.20;100.00;102578.78;6164266;23;20002;-87
2021/04/22 03:35:50;;;;;;;21.60;7.20;;;;;;;3.19;100.00;102572.69;6167025;23;20028;-88
2021/04/22 03:38:15;;;;;;;26.55;5.90;;;;;;;3.31;100.00;102582.41;6167608;23;20014;-88
2021/04/22 03:40:41;;;;;;;17.75;5.82;;;;;;;3.11;100.00;102571.69;6168577;23;20869;-87
2021/04/22 03:43:06;;;;;;;23.90;5.10;;;;;;;3.32;100.00;102586.81;6168130;23;20146;-87
2021/04/22 03:45:31;;;;;;;22.83;5.88;;;;;;;3.38;100.00;102590.38;6164800;23;20005;-86
2021/04/22 03:47:57;;;;;;;23.67;5.30;;;;;;;3.36;100.00;102589.50;6168467;23;20005;-85
2021/04/22 03:50:22;;;;;;;20.48;5.72;;;;;;;3.33;100.00;102586.81;6168354;23;20054;-86
2021/04/22 03:52:49;;;;;;;22.35;4.95;;;;;;;3.19;100.00;102585.75;6162941;23;20021;-86
2021/04/22 03:55:17;;;;;;;15.82;4.80;;;;;;;3.08;100.00;102575.16;6165098;23;20002;-87
2021/04/22 03:57:43;;;;;;;21.75;4.90;;;;;;;3.19;100.00;102590.97;6166618;23;20009;-87
2021/04/22 04:00:14;;;;;;;25.05;4.25;;;;;;;3.17;100.00;102566.56;6165956;23;20483;-87
2021/04/22 04:02:40;;;;;;;20.63;4.63;;;;;;;3.25;100.00;102587.56;6162545;23;20009;-86
2021/04/22 04:05:07;;;;;;;18.60;4.57;;;;;;;3.34;100.00;102585.97;6163230;23;20012;-86
2021/04/22 04:07:32;;;;;;;18.90;4.38;;;;;;;3.18;100.00;102577.91;6162954;23;20088;-86
2021/04/22 04:09:57;;;;;;;19.77;4.10;;;;;;;3.19;100.00;102587.50;6163593;23;20012;-86
2021/04/22 04:12:24;;;;;;;15.32;4.47;;;;;;;3.29;100.00;102577.19;6162888;23;20463;-87
2021/04/22 04:14:49;;;;;;;19.17;3.85;;;;;;;3.30;100.00;102589.38;6161972;23;20007;-86
2021/04/22 04:17:14;;;;;;;15.30;3.42;;;;;;;3.22;100.00;102591.03;6161733;23;20742;-86
2021/04/22 04:19:40;;;;;;;22.45;4.70;;;;;;;3.14;100.00;102583.94;6162315;23;20005;-85
2021/04/22 04:22:05;;;;;;;18.80;4.00;;;;;;;3.20;100.00;102566.59;6163451;23;20012;-87
2021/04/22 04:24:30;;;;;;;13.63;3.53;;;;;;;3.35;100.00;102595.53;6162368;23;20017;-86
2021/04/22 04:26:56;;;;;;;14.82;3.25;;;;;;;3.12;100.00;102586.53;6162786;23;20000;-87
2021/04/22 04:29:21;;;;;;;24.40;4.35;;;;;;;3.33;100.00;102602.50;6163287;23;20012;-86
2021/04/22 04:31:46;;;;;;;19.52;4.13;;;;;;;3.30;100.00;102596.34;6163356;23;20009;-87
2021/04/22 04:34:13;;;;;;;16.35;5.85;;;;;;;3.13;100.00;102572.63;6163081;23;20032;-87
2021/04/22 04:36:43;;;;;;;21.48;4.57;;;;;;;3.27;100.00;102578.03;6162109;23;20132;-86
2021/04/22 04:39:28;;;;;;;20.35;3.28;;;;;;;3.45;100.00;102595.69;6162030;23;20028;-86
2021/04/22 04:41:53;;;;;;;18.05;3.95;;;;;;;3.22;100.00;102575.34;6161397;23;20385;-86
2021/04/22 04:44:19;;;;;;;19.65;4.47;;;;;;;3.45;100.00;102600.91;6164516;23;20006;-88
2021/04/22 04:46:44;;;;;;;18.77;4.38;;;;;;;3.42;100.00;102603.50;6139162;23;20009;-86
2021/04/22 04:49:09;;;;;;;17.83;4.60;;;;;;;3.39;100.00;102609.53;6164633;23;20089;-87
2021/04/22 04:51:35;;;;;;;18.95;3.63;;;;;;;3.46;100.00;102606.13;6175486;23;20037;-88
2021/04/22 04:54:00;;;;;;;20.20;5.28;;;;;;;3.46;100.00;102607.88;6163903;23;20320;-84
2021/04/22 04:56:26;;;;;;;25.00;3.90;;;;;;;3.32;100.00;102603.38;6163460;23;20105;-85
2021/04/22 04:59:09;;;;;;;20.17;3.88;;;;;;;3.48;100.00;102609.66;6163853;23;20009;-86
2021/04/22 05:01:34;;;;;;;21.48;3.80;;;;;;;3.33;100.00;102601.63;6163796;23;20005;-86
2021/04/22 05:04:00;;;;;;;16.83;3.65;;;;;;;3.39;100.00;102622.63;6172414;23;20023;-85
2021/04/22 05:06:25;;;;;;;22.85;5.15;;;;;;;3.38;100.00;102621.75;6194312;23;20004;-85
2021/04/22 05:08:51;;;;;;;22.48;5.55;;;;;;;3.28;100.00;102613.75;6193926;23;20033;-85
2021/04/22 05:11:16;;;;;;;21.20;4.65;;;;;;;3.36;100.00;102631.31;6166602;23;20009;-85
2021/04/22 05:13:42;;;;;;;9.45;3.75;;;;;;;3.32;100.00;102641.69;6193855;23;20053;-89
2021/04/22 05:16:07;;;;;;;14.80;3.72;;;;;;;3.44;100.00;102633.13;6166930;23;20071;-86
2021/04/22 05:18:32;;;;;;;14.95;3.28;;;;;;;3.48;100.00;102622.75;6166166;23;20065;-87
2021/04/22 05:20:58;;;;;;;15.35;3.15;;;;;;;3.62;100.00;102642.09;6165160;23;20012;-85
2021/04/22 05:23:24;;;;;;;20.27;3.60;;;;;;;3.68;100.00;102629.97;6165563;23;20005;-86
2021/04/22 05:25:49;;;;;;;21.63;3.92;;;;;;;3.72;100.00;102648.34;6193411;23;20016;-85
2021/04/22 05:28:15;;;;;;;20.27;4.13;;;;;;;3.82;100.00;102641.47;6165567;23;20060;-87
2021/04/22 05:30:41;;;;;;;22.60;5.22;;;;;;;3.76;100.00;102630.91;6169723;23;20011;-88
2021/04/22 05:33:11;;;;;;;24.33;4.20;;;;;;;3.93;100.00;102628.53;6169171;23;20603;-86
2021/04/22 05:35:37;;;;;;;18.90;4.25;;;;;;;4.09;100.00;102649.63;6168994;23;20001;-85
2021/04/22 05:38:18;;;;;;;12.70;3.15;;;;;;;4.13;100.00;102650.56;6168228;23;20024;-85
2021/04/22 05:40:43;;;;;;;14.85;3.78;;;;;;;4.19;100.00;102636.66;6166764;23;20001;-85
2021/04/22 05:43:09;;;;;;;21.23;4.03;;;;;;;4.33;100.00;102650.78;6165082;23;20100;-86
2021/04/22 05:45:36;;;;;;;11.73;3.10;;;;;;;4.21;100.00;102642.78;6166260;23;20071;-86
2021/04/22 05:48:01;;;;;;;15.77;3.85;;;;;;;4.36;100.00;102656.91;6167805;23;20001;-87
2021/04/22 05:50:27;;;;;;;20.25;3.55;;;;;;;4.38;100.00;102651.69;6199438;23;20012;-88
2021/04/22 05:52:52;;;;;;;17.40;4.20;;;;;;;4.50;100.00;102672.75;6173475;23;20005;-87
2021/04/22 05:55:38;;;;;;;17.80;3.58;;;;;;;4.69;100.00;102676.44;6173290;23;20011;-88
2021/04/22 05:58:03;;;;;;;18.90;4.07;;;;;;;4.85;100.00;102672.19;6176191;23;20367;-86
2021/04/22 06:00:42;;;;;;;18.35;3.50;;;;;;;4.90;100.00;102666.13;6174531;23;20036;-87
2021/04/22 06:03:23;;;;;;;20.80;3.40;;;;;;;4.90;100.00;102658.25;6176082;23;20005;-86
2021/04/22 06:05:49;;;;;;;18.38;2.60;;;;;;;4.90;100.00;102647.78;6175772;23;20040;-87
2021/04/22 06:08:14;;;;;;;16.33;4.10;;;;;;;5.01;100.00;102655.72;6190037;23;20481;-88
2021/04/22 06:10:40;;;;;;;20.20;3.60;;;;;;;5.17;100.00;102667.19;6161509;23;20001;-87
2021/04/22 06:13:06;;;;;;;10.18;3.00;;;;;;;5.34;100.00;102680.44;6187400;23;20087;-87
2021/04/22 06:15:32;;;;;;;15.05;2.80;;;;;;;5.40;100.00;102681.34;6160910;23;20335;-87
2021/04/22 06:17:58;;;;;;;15.75;3.47;;;;;;;5.55;100.00;102691.03;6188083;23;20088;-87
2021/04/22 06:20:24;;;;;;;14.43;3.10;;;;;;;5.59;100.00;102676.22;6159844;23;20011;-86
2021/04/22 06:22:50;;;;;;;26.70;3.92;;;;;;;5.77;100.00;102684.16;6161002;23;20419;-85
2021/04/22 06:25:17;;;;;;;13.52;3.55;;;;;;;5.68;100.00;102661.41;6160365;23;20032;-86
2021/04/22 06:27:43;;;;;;;16.13;4.03;;;;;;;5.77;100.00;102676.28;6160399;23;20004;-86
2021/04/22 06:30:28;;;;;;;14.48;5.32;;;;;;;5.90;100.00;102692.97;6161268;23;20005;-87
2021/04/22 06:32:55;;;;;;;19.90;3.70;;;;;;;5.86;100.00;102685.97;6161708;23;19985;-87
2021/04/22 06:35:21;;;;;;;17.45;4.22;;;;;;;6.01;100.00;102690.44;6186196;23;20412;-88
2021/04/22 06:37:47;;;;;;;23.25;4.43;;;;;;;6.04;100.00;102693.94;6163738;23;20040;-87
2021/04/22 06:40:19;;;;;;;16.55;3.35;;;;;;;6.02;100.00;102674.66;6160914;23;20008;-87
2021/04/22 06:42:44;;;;;;;37.50;5.88;;;;;;;6.22;100.00;102701.00;6162577;23;20657;-87
2021/04/22 06:45:12;;;;;;;15.60;4.50;;;;;;;6.28;100.00;102697.53;6139297;23;20009;-87
2021/04/22 06:47:39;;;;;;;28.40;5.32;;;;;;;6.38;100.00;102702.81;6162185;23;20028;-87
2021/04/22 06:50:07;;;;;;;23.02;5.00;;;;;;;6.36;100.00;102690.53;6161846;23;20001;-87
2021/04/22 06:52:32;;;;;;;17.98;3.17;;;;;;;6.43;100.00;102708.09;6163912;23;20050;-87
2021/04/22 06:54:57;;;;;;;20.23;6.07;;;;;;;6.41;100.00;102713.31;6162800;23;20005;-87
2021/04/22 06:57:23;;;;;;;21.65;4.65;;;;;;;6.60;100.00;102711.63;6165447;23;20504;-87
2021/04/22 06:59:48;;;;;;;19.27;3.95;;;;;;;6.67;100.00;102696.72;6164643;23;20335;-87
2021/04/22 07:02:13;;;;;;;19.67;3.00;;;;;;;6.90;100.00;102708.16;6164492;23;20694;-88
2021/04/22 07:04:39;;;;;;;24.02;3.72;;;;;;;6.88;100.00;102716.91;6164115;23;20052;-87
2021/04/22 07:07:10;;;;;;;18.30;3.03;;;;;;;6.88;100.00;102706.41;6167372;23;20005;-87
2021/04/22 07:09:35;;;;;;;18.25;3.08;;;;;;;7.17;99.87;102717.78;6166944;23;20047;-86
2021/04/22 07:12:02;;;;;;;20.27;4.35;;;;;;;7.26;98.45;102722.16;6166291;23;20029;-87
2021/04/22 07:14:27;;;;;;;12.80;1.95;;;;;;;7.38;99.11;102714.28;6166310;23;20015;-86
2021/04/22 07:16:53;;;;;;;13.50;2.33;;;;;;;7.57;98.74;102724.75;6165212;23;20068;-87
2021/04/22 07:19:18;;;;;;;14.25;2.38;;;;;;;7.47;97.43;102714.22;6166060;23;20091;-87
2021/04/22 07:21:43;;;;;;;13.27;2.92;;;;;;;7.55;96.20;102718.63;6195989;23;20001;-87
2021/04/22 07:24:09;;;;;;;17.75;2.47;;;;;;;7.51;96.11;102704.59;6168260;23;20016;-86
2021/04/22 07:26:35;;;;;;;12.45;2.53;;;;;;;7.35;95.20;102710.75;6169365;23;20322;-85
2021/04/22 07:29:01;;;;;;;16.00;3.90;;;;;;;7.34;95.57;102730.94;6171479;23;20001;-86
2021/04/22 07:31:26;;;;;;;14.65;3.05;;;;;;;7.35;96.43;102744.97;6168796;23;20001;-86
2021/04/22 07:33:52;;;;;;;13.45;2.10;;;;;;;7.25;95.98;102750.22;6142566;23;20016;-86
2021/04/22 07:36:18;;;;;;;13.77;2.80;;;;;;;7.50;95.53;102740.56;6164984;23;20001;-86
2021/04/22 07:38:44;;;;;;;11.13;3.08;;;;;;;7.55;95.16;102732.66;6166032;23;20032;-87
2021/04/22 07:41:09;;;;;;;16.80;4.43;;;;;;;7.69;95.61;102727.38;6168104;23;20339;-86
2021/04/22 07:43:35;;;;;;;15.80;3.90;;;;;;;8.16;93.33;102731.59;6168139;23;20005;-87
2021/04/22 07:46:00;;;;;;;19.42;3.30;;;;;;;8.38;92.49;102732.38;6192380;23;20005;-86
2021/04/22 07:48:26;;;;;;;12.48;2.50;;;;;;;8.31;91.27;102734.16;6189234;23;20009;-86
2021/04/22 07:50:51;;;;;;;13.52;2.83;;;;;;;8.53;90.93;102754.28;6166725;23;19997;-86
2021/04/22 07:53:18;;;;;;;14.73;2.75;;;;;;;8.78;88.77;102748.84;6163903;23;20001;-85
2021/04/22 07:55:45;;;;;;;16.70;2.33;;;;;;;8.91;87.70;102742.59;6162634;23;20071;-86
2021/04/22 07:58:12;;;;;;;16.42;2.47;;;;;;;8.93;86.33;102754.00;6190713;23;20132;-86
2021/04/22 08:00:45;;;;;;;16.90;2.10;;;;;;;8.97;86.78;102728.50;6163448;23;20021;-86
2021/04/22 08:03:13;;;;;;;18.65;2.03;;;;;;;8.94;85.97;102733.81;6166606;23;20040;-86
2021/04/22 08:05:39;;;;;;;18.88;2.42;;;;;;;8.97;85.20;102761.00;6164234;23;20225;-86
2021/04/22 08:08:06;;;;;;;13.85;2.38;;;;;;;9.02;88.11;102756.59;6161869;23;20428;-86
2021/04/22 08:10:34;;;;;;;10.68;2.85;;;;;;;8.78;86.92;102744.44;6163298;23;20442;-86
2021/04/22 08:13:02;;;;;;;10.77;2.40;;;;;;;8.32;88.37;102741.16;6163418;23;20025;-86
2021/04/22 08:15:29;;;;;;;14.00;2.28;;;;;;;8.43;88.16;102736.75;6162130;23;20424;-87
2021/04/22 08:17:54;;;;;;;9.55;2.55;;;;;;;8.29;88.42;102742.06;6163819;23;20684;-86
2021/04/22 08:20:24;;;;;;;12.20;2.60;;;;;;;8.26;89.03;102760.50;6163383;23;20005;-86
2021/04/22 08:22:51;;;;;;;13.68;2.55;;;;;;;8.19;89.04;102761.44;6165780;23;20028;-87
2021/04/22 08:25:22;;;;;;;15.75;2.92;;;;;;;8.27;90.82;102759.63;6167517;23;20103;-87
2021/04/22 08:27:51;;;;;;;10.35;2.65;;;;;;;8.38;89.64;102764.88;6163958;23;20005;-87
2021/04/22 08:30:23;;;;;;;13.57;3.00;;;;;;;8.72;87.59;102751.53;6165837;23;20080;-87
2021/04/22 08:32:49;;;;;;;16.10;3.50;;;;;;;9.10;85.83;102759.19;6168319;23;20001;-87
2021/04/22 08:35:15;;;;;;;13.10;2.28;;;;;;;9.62;84.02;102749.91;6170647;23;20005;-87
2021/04/22 08:37:40;;;;;;;12.25;2.40;;;;;;;9.94;82.02;102750.47;6168523;23;20029;-87
2021/04/22 08:40:09;;;;;;;14.32;2.30;;;;;;;9.88;82.30;102737.28;6170206;23;19997;-87
2021/04/22 08:42:35;;;;;;;19.98;3.38;;;;;;;10.02;82.25;102745.94;6170343;23;20427;-86
2021/04/22 08:45:03;;;;;;;12.57;2.38;;;;;;;10.04;81.28;102757.38;6170659;23;20419;-87
2021/04/22 08:47:29;;;;;;;14.50;2.45;;;;;;;9.91;81.21;102760.16;6135461;23;20029;-87
2021/04/22 08:49:56;;;;;;;11.02;2.35;;;;;;;9.75;83.05;102751.53;6082280;23;20010;-87
2021/04/22 08:52:25;;;;;;;13.95;3.47;;;;;;;9.82;83.14;102758.50;6107284;23;20021;-87
2021/04/22 08:54:52;;;;;;;19.23;2.95;;;;;;;9.66;82.08;102767.47;6105075;23;20089;-86
2021/04/22 08:57:18;;;;;;;9.30;2.50;;;;;;;9.27;83.31;102756.38;6133740;23;20016;-86
2021/04/22 09:03:05;;;;;;;13.85;2.42;;;;;;;9.01;85.61;102775.06;6130292;23;20144;-85
2021/04/22 09:05:32;;;;;;;14.35;3.30;;;;;;;9.19;85.91;102774.94;6104472;23;20380;-85
2021/04/22 09:07:57;;;;;;;12.80;2.60;;;;;;;9.14;84.99;102770.59;6103580;23;20081;-85
2021/04/22 09:10:24;;;;;;;12.80;2.97;;;;;;;8.93;85.59;102756.63;6106116;23;20009;-85
2021/04/22 09:13:06;;;;;;;13.95;2.58;;;;;;;8.92;85.73;102773.34;6058205;23;20437;-86
2021/04/22 09:15:34;;;;;;;9.93;2.60;;;;;;;8.76;86.44;102774.34;6106290;23;20002;-87
2021/04/22 09:18:15;;;;;;;14.70;2.88;;;;;;;8.97;85.51;102776.84;6100492;23;20785;-86
2021/04/22 09:20:48;;;;;;;12.35;2.45;;;;;;;9.98;83.48;102770.63;6188309;23;20036;-87
2021/04/22 09:23:21;;;;;;;15.90;2.83;;;;;;;10.40;80.01;102765.78;6165987;23;20001;-87
2021/04/22 09:26:07;;;;;;;19.23;2.60;;;;;;;10.36;80.07;102751.72;6163179;23;20001;-86
2021/04/22 09:28:52;;;;;;;12.63;3.08;;;;;;;10.38;79.65;102768.41;6138431;23;20013;-87
2021/04/22 09:31:26;;;;;;;9.20;2.97;;;;;;;10.15;80.38;102767.81;6163536;23;20045;-86
2021/04/22 09:34:11;;;;;;;9.57;2.60;;;;;;;11.11;76.60;102766.47;6139092;23;20021;-86
2021/04/22 09:36:51;;;;;;;10.15;3.22;;;;;;;11.24;75.41;102769.78;6191514;23;20001;-86
2021/04/22 09:39:40;;;;;;;13.75;2.65;;;;;;;11.17;75.13;102777.88;6168487;23;20005;-87
2021/04/22 09:42:08;;;;;;;18.92;2.65;;;;;;;11.39;73.12;102766.88;6167136;23;20602;-86
2021/04/22 09:44:36;;;;;;;13.27;2.45;;;;;;;11.52;72.66;102756.97;6164593;23;20047;-87
2021/04/22 09:47:16;;;;;;;12.23;2.42;;;;;;;11.06;74.55;102748.94;6166138;23;20001;-87
2021/04/22 09:49:58;;;;;;;12.65;2.35;;;;;;;11.57;72.95;102756.88;6144071;23;20055;-87
2021/04/22 09:52:34;;;;;;;11.68;2.80;;;;;;;11.15;73.29;102765.53;6170589;23;20063;-86
2021/04/22 09:55:18;;;;;;;12.77;2.35;;;;;;;11.59;73.72;102752.41;6194757;23;20021;-87
2021/04/22 09:58:03;;;;;;;15.57;2.80;;;;;;;11.59;72.33;102755.94;6191893;23;20068;-86
2021/04/22 10:00:31;;;;;;;14.60;3.17;;;;;;;11.77;71.44;102757.38;6193963;23;20004;-86
2021/04/22 10:03:09;;;;;;;15.80;2.83;;;;;;;11.78;71.21;102764.41;6165755;23;20379;-86
2021/04/22 10:05:35;;;;;;;9.02;2.60;;;;;;;11.72;72.36;102753.94;6163871;23;20091;-87
2021/04/22 10:08:11;;;;;;;7.95;2.17;;;;;;;12.76;70.03;102770.38;6164380;23;20005;-87
2021/04/22 10:10:39;;;;;;;14.93;2.78;;;;;;;12.82;70.03;102764.91;6166905;23;20001;-86
2021/04/22 10:13:07;;;;;;;12.05;2.95;;;;;;;12.74;66.56;102768.66;6171841;23;20331;-86
2021/04/22 10:15:34;;;;;;;14.73;2.40;;;;;;;13.16;64.65;102764.13;6167916;23;20008;-86
2021/04/22 10:18:03;;;;;;;9.38;2.35;;;;;;;12.26;67.06;102751.13;6196923;23;20016;-86
2021/04/22 10:20:30;;;;;;;12.48;2.95;;;;;;;12.68;67.13;102765.22;6170631;23;20005;-85
2021/04/22 10:22:57;;;;;;;8.55;2.60;;;;;;;13.27;65.06;102762.09;6174676;23;20004;-86
2021/04/22 10:25:40;;;;;;;14.18;2.58;;;;;;;13.25;63.43;102768.34;6175785;23;20004;-85
2021/04/22 10:28:45;;;;;;;14.40;3.15;;;;;;;12.06;67.93;102756.84;6157902;23;20073;-85
2021/04/22 10:31:10;;;;;;;14.80;3.25;;;;;;;12.72;66.29;102768.69;6198292;23;20005;-86
2021/04/22 10:33:35;;;;;;;11.68;2.55;;;;;;;12.47;65.31;102754.25;6176182;23;20107;-86
2021/04/22 10:36:04;;;;;;;12.52;2.60;;;;;;;13.33;62.23;102769.03;6196387;23;20027;-86
2021/04/22 10:38:30;;;;;;;11.27;2.88;;;;;;;15.51;53.08;102762.50;6167641;23;19992;-86
2021/04/22 10:40:57;;;;;;;16.70;2.80;;;;;;;15.10;47.34;102755.03;6170471;23;20060;-85
2021/04/22 10:43:43;;;;;;;8.35;2.67;;;;;;;15.82;45.90;102757.91;6164932;23;20005;-86
2021/04/22 10:46:09;;;;;;;;;;;;;;;18.34;38.25;102755.50;6169113;23;20005;-86
2021/04/22 10:48:34;;;;;;;15.13;2.80;;;;;;;15.83;43.44;102756.97;6165885;23;19905;-86
2021/04/22 10:51:00;;;;;;;10.25;2.80;;;;;;;17.12;39.66;102756.44;6168414;23;20012;-86
2021/04/22 10:53:27;;;;;;;12.60;3.20;;;;;;;18.45;36.30;102749.66;6168557;23;20061;-86
2021/04/22 10:55:56;;;;;;;9.00;2.65;;;;;;;18.15;37.21;102749.28;6197428;23;20008;-85
2021/04/22 10:58:48;;;;;;;13.10;2.70;;;;;;;16.17;41.53;102753.94;6169385;23;20016;-87
2021/04/22 11:01:14;;;;;;;14.07;3.17;;;;;;;14.24;45.65;102749.69;6172494;23;20008;-86
2021/04/22 11:03:49;;;;;;;14.60;2.88;;;;;;;14.05;47.03;102744.03;6167015;23;20407;-85
2021/04/22 11:06:20;;;;;;;16.83;3.58;;;;;;;17.54;38.72;102744.84;6166111;23;20016;-85
2021/04/22 11:08:47;;;;;;;10.98;2.97;;;;;;;19.42;33.16;102742.13;6164574;23;20454;-85
2021/04/22 11:11:25;;;;;;;14.07;3.17;;;;;;;18.93;34.88;102732.19;6163351;23;20103;-85
2021/04/22 11:14:07;;;;;;;11.00;2.85;;;;;;;19.86;33.26;102733.59;6166408;23;20489;-85
2021/04/22 11:16:35;;;;;;;10.02;3.25;;;;;;;17.07;38.03;102737.91;6197490;23;20008;-86
2021/04/22 11:19:18;;;;;;;13.13;3.40;;;;;;;18.04;36.03;102729.22;6137931;23;20010;-87
2021/04/22 11:21:53;;;;;;;13.20;3.60;;;;;;;18.70;34.25;102742.19;6136026;23;20010;-86
2021/04/22 11:24:34;;;;;;;9.38;2.90;;;;;;;18.34;35.46;102748.34;6113732;23;20100;-86
2021/04/22 11:27:06;;;;;;;15.68;3.75;;;;;;;18.57;34.69;102751.72;6109344;23;20534;-85